If you wish to contribute or participate in the discussions about articles you are invited to join SKYbrary as a registered user

 Actions

Cambridge Airport

From SKYbrary Wiki

EGSC
Airport
ICAO: EGSC – IATA: CBG
Summary
Name Cambridge Airport
Region Europe
Territory United Kingdom GB.gif
Location Cambridge, England
Serving Cambridge
Elevation 14.326 m
47 ft
47 ft14.326 m
Coordinates 52° 12' 24.94" N, 0° 10' 24.80" E
Runways
Designator Length Width Surface ROPS
5/23 1965 m6,446.85 ft
46 m150.919 ft
ASP yes/yes
05R/23L 899 m2,949.475 ft
35 m114.829 ft
GRS /
10/28 699 m2,293.307 ft
35 m114.829 ft
GRS /


METAR
Observation EGSC 131320Z 26015KT 9999 FEW024 BKN032 08/03 Q0980
Station Cambridge
Date/Time 13 December 2019 13:20:00
Wind direction 260°
Wind speed 15 kts
Lowest cloud amount few clouds
Temperature 8°C
Dew point 3°C
Humidity 70%
QNH 980 hPa
Weather condition n/a

Cambridge Airport

ICAO: EGSC IATA: CBG

Description

International airport serving the university city of Cambridge, UK.

Climatology

Temperate Marine climate/Oceanic climate (Köppen climate classification Cfb). Moderately cool summer and comparatively warm winter with a temperature range of only 14°C57.2 °F
287.15 K
516.87 °R
. Prevailing south-westerly winds from the Atlantic Ocean.

Maps

Terrain

Loading map...

Airport Layout

Loading map...


Accidents & Serious Incidents at or in vicinity of EGSC

None on SKYbrary